Time;durP1;ratioP1;P1;durP2;ratioP2;P2;SDS_P1;SDS_P2;PMS_P1;PMS_P2;Temp;Humidity;BMP_temperature;BMP_pressure;BME280_temperature;BME280_humidity;BME280_pressure;Samples;Min_cycle;Max_cycle;Signal;HPM_P1;HPM_P2
2023/04/27 00:00:48;;;;;;;4.07;2.70;;;9.40;99.90;;;;;;5095056;28;20228;-66
2023/04/27 00:03:15;;;;;;;4.43;3.40;;;9.40;99.90;;;;;;5095052;28;20443;-66
2023/04/27 00:05:41;;;;;;;4.97;3.10;;;9.40;99.90;;;;;;5095072;28;20298;-66
2023/04/27 00:08:08;;;;;;;2.87;2.30;;;9.50;99.90;;;;;;5094611;28;20220;-66
2023/04/27 00:10:36;;;;;;;4.60;2.50;;;9.40;99.90;;;;;;5094970;28;20208;-66
2023/04/27 00:13:03;;;;;;;4.97;2.90;;;9.40;99.90;;;;;;5094943;28;20224;-66
2023/04/27 00:15:30;;;;;;;4.27;2.43;;;9.40;99.90;;;;;;5094986;28;20215;-66
2023/04/27 00:17:57;;;;;;;3.50;2.43;;;9.40;99.90;;;;;;5094570;28;20256;-66
2023/04/27 00:20:24;;;;;;;3.90;2.30;;;9.40;99.90;;;;;;5094741;28;20232;-66
2023/04/27 00:22:51;;;;;;;5.30;2.80;;;9.40;99.90;;;;;;5094695;28;20686;-66
2023/04/27 00:25:17;;;;;;;7.23;2.40;;;9.40;99.90;;;;;;5094522;28;20293;-66
2023/04/27 00:27:45;;;;;;;3.47;2.50;;;9.30;99.90;;;;;;5094373;28;20320;-66
2023/04/27 00:30:12;;;;;;;5.43;2.67;;;9.30;99.90;;;;;;5094726;28;20204;-67
2023/04/27 00:32:39;;;;;;;4.73;2.50;;;9.10;99.90;;;;;;5094306;28;20625;-67
2023/04/27 00:35:06;;;;;;;4.60;2.57;;;9.10;99.90;;;;;;5094471;28;20211;-67
2023/04/27 00:37:33;;;;;;;5.03;2.90;;;9.00;99.90;;;;;;5094409;28;20289;-66
2023/04/27 00:40:00;;;;;;;3.97;2.67;;;8.80;99.90;;;;;;5094681;28;20204;-66
2023/04/27 00:42:26;;;;;;;7.00;2.57;;;8.80;99.90;;;;;;5094952;28;20212;-66
2023/04/27 00:44:57;;;;;;;5.67;3.30;;;8.60;99.90;;;;;;5095310;28;20557;-66
2023/04/27 00:47:24;;;;;;;4.00;2.70;;;8.60;99.90;;;;;;5094520;28;20638;-67
2023/04/27 00:49:51;;;;;;;6.47;2.60;;;8.60;99.90;;;;;;5097166;28;20219;-67
2023/04/27 00:52:18;;;;;;;3.93;2.53;;;8.60;99.90;;;;;;5094730;28;20224;-66
2023/04/27 00:54:45;;;;;;;3.93;2.70;;;8.70;99.90;;;;;;5095093;28;20204;-66
2023/04/27 00:57:11;;;;;;;4.17;2.50;;;8.70;99.90;;;;;;5094757;28;20254;-66
2023/04/27 00:59:39;;;;;;;4.50;2.60;;;8.60;99.90;;;;;;5093987;28;20253;-67
2023/04/27 01:02:07;;;;;;;4.13;2.83;;;8.60;99.90;;;;;;5093861;28;20208;-67
2023/04/27 01:04:35;;;;;;;7.97;3.20;;;8.60;99.90;;;;;;5093999;28;20686;-66
2023/04/27 01:07:02;;;;;;;6.37;2.90;;;8.50;99.90;;;;;;5093797;28;20600;-66
2023/04/27 01:09:29;;;;;;;4.63;2.40;;;8.40;99.90;;;;;;5093343;28;20292;-67
2023/04/27 01:11:57;;;;;;;3.73;2.83;;;8.40;99.90;;;;;;5093724;28;20216;-66
2023/04/27 01:14:23;;;;;;;5.40;2.60;;;8.50;99.90;;;;;;5094304;28;20287;-67
2023/04/27 01:16:51;;;;;;;4.27;2.90;;;8.50;99.90;;;;;;5093426;28;20235;-67
2023/04/27 01:19:19;;;;;;;5.13;2.57;;;8.60;99.90;;;;;;5093815;28;20269;-67
2023/04/27 01:21:46;;;;;;;6.73;3.20;;;8.70;99.90;;;;;;5093751;28;20542;-67
2023/04/27 01:24:14;;;;;;;6.03;2.67;;;8.80;99.90;;;;;;5093765;28;20295;-67
2023/04/27 01:26:41;;;;;;;6.37;2.80;;;8.80;99.90;;;;;;5093834;28;20209;-67
2023/04/27 01:29:07;;;;;;;5.43;3.33;;;8.90;99.90;;;;;;5093632;28;20211;-67
2023/04/27 01:31:34;;;;;;;4.53;3.17;;;9.00;99.90;;;;;;5093436;28;20553;-67
2023/04/27 01:34:01;;;;;;;4.70;3.10;;;9.00;99.90;;;;;;5093643;28;20231;-67
2023/04/27 01:36:27;;;;;;;4.47;3.20;;;9.10;99.90;;;;;;5093403;28;20201;-67
2023/04/27 01:38:54;;;;;;;5.93;3.17;;;9.10;99.90;;;;;;5111647;22;20232;-58
2023/04/27 01:41:22;;;;;;;6.10;2.80;;;9.20;99.90;;;;;;5087677;28;20268;-58
2023/04/27 01:43:49;;;;;;;3.53;2.80;;;9.20;99.90;;;;;;5093849;28;20685;-58
2023/04/27 01:46:16;;;;;;;6.37;3.10;;;9.10;99.90;;;;;;5093993;28;20556;-58
2023/04/27 01:48:43;;;;;;;5.80;3.20;;;9.10;99.90;;;;;;5093597;28;20314;-57
2023/04/27 01:51:09;;;;;;;4.50;3.10;;;9.10;99.90;;;;;;5093894;28;20576;-59
2023/04/27 01:53:36;;;;;;;3.90;2.80;;;9.10;99.90;;;;;;5093663;28;20642;-57
2023/04/27 01:56:03;;;;;;;4.00;2.90;;;9.10;99.90;;;;;;5093610;28;20208;-57
2023/04/27 01:58:31;;;;;;;4.23;2.47;;;9.20;99.90;;;;;;5093642;28;20228;-57
2023/04/27 02:00:59;;;;;;;6.80;3.20;;;9.20;99.90;;;;;;5094568;28;20239;-57
2023/04/27 02:03:25;;;;;;;7.27;3.00;;;9.20;99.90;;;;;;5095426;28;20204;-57
2023/04/27 02:05:52;;;;;;;5.03;2.63;;;9.20;99.90;;;;;;5095205;28;20571;-58
2023/04/27 02:08:19;;;;;;;7.23;3.17;;;9.30;99.90;;;;;;5094588;28;20231;-57
2023/04/27 02:10:46;;;;;;;5.23;2.80;;;9.30;99.90;;;;;;5094809;28;20231;-58
2023/04/27 02:13:13;;;;;;;3.53;2.83;;;9.30;99.90;;;;;;5095385;28;20311;-57
2023/04/27 02:15:41;;;;;;;5.67;2.50;;;9.20;99.90;;;;;;5095241;28;20212;-57
2023/04/27 02:18:08;;;;;;;5.70;2.60;;;9.20;99.90;;;;;;5094000;28;20224;-57
2023/04/27 02:20:35;;;;;;;5.63;2.70;;;9.20;99.90;;;;;;5093693;28;20668;-57
2023/04/27 02:23:02;;;;;;;5.07;2.63;;;9.10;99.90;;;;;;5094509;28;20211;-57
2023/04/27 02:25:29;;;;;;;3.57;2.60;;;9.10;99.90;;;;;;5094384;28;20200;-57
2023/04/27 02:27:56;;;;;;;5.10;2.70;;;9.10;99.90;;;;;;5094500;28;20699;-59
2023/04/27 02:30:23;;;;;;;6.27;2.70;;;9.10;99.90;;;;;;5093960;28;20295;-57
2023/04/27 02:32:51;;;;;;;5.03;2.60;;;9.10;99.90;;;;;;5093620;28;20224;-57
2023/04/27 02:35:18;;;;;;;7.10;2.83;;;9.10;99.90;;;;;;5093215;28;20204;-57
2023/04/27 02:37:45;;;;;;;4.07;2.60;;;9.10;99.90;;;;;;5092789;28;20259;-57
2023/04/27 02:40:12;;;;;;;5.03;2.90;;;9.10;99.90;;;;;;5093185;28;20207;-57
2023/04/27 02:42:39;;;;;;;5.47;2.70;;;9.10;99.90;;;;;;5093731;28;20196;-57
2023/04/27 02:45:07;;;;;;;5.43;2.70;;;9.10;99.90;;;;;;5093589;28;20204;-57
2023/04/27 02:47:34;;;;;;;5.53;2.73;;;9.10;99.90;;;;;;5092860;28;20227;-59
2023/04/27 02:50:03;;;;;;;5.17;2.73;;;9.10;99.90;;;;;;5093258;28;20222;-57
2023/04/27 02:52:30;;;;;;;3.80;2.30;;;9.10;99.90;;;;;;5093129;28;20669;-58
2023/04/27 02:54:57;;;;;;;3.33;2.50;;;9.00;99.90;;;;;;5094063;28;20204;-58
2023/04/27 02:57:24;;;;;;;5.37;2.77;;;9.00;99.90;;;;;;5093457;28;20273;-58
2023/04/27 02:59:50;;;;;;;5.80;2.63;;;8.90;99.90;;;;;;5092844;28;20200;-58
2023/04/27 03:02:17;;;;;;;3.30;2.60;;;8.90;99.90;;;;;;5093406;28;20201;-58
2023/04/27 03:04:44;;;;;;;4.33;2.80;;;8.90;99.90;;;;;;5093075;28;20204;-58
2023/04/27 03:07:12;;;;;;;5.40;2.80;;;8.90;99.90;;;;;;5093789;28;20208;-58
2023/04/27 03:09:39;;;;;;;4.33;2.70;;;8.90;99.90;;;;;;5094635;28;20215;-58
2023/04/27 03:12:06;;;;;;;4.67;2.70;;;8.90;99.90;;;;;;5094989;28;20208;-58
2023/04/27 03:14:32;;;;;;;6.07;3.10;;;8.90;99.90;;;;;;5095243;28;20447;-58
2023/04/27 03:17:01;;;;;;;6.17;2.87;;;8.80;99.90;;;;;;5093523;28;20301;-59
2023/04/27 03:19:28;;;;;;;4.53;2.70;;;8.70;99.90;;;;;;5093148;28;20301;-57
2023/04/27 03:21:55;;;;;;;4.83;2.80;;;8.60;99.90;;;;;;5093880;28;20651;-58
2023/04/27 03:24:24;;;;;;;3.93;2.47;;;8.50;99.90;;;;;;5093739;28;20216;-57
2023/04/27 03:26:51;;;;;;;4.80;2.43;;;8.50;99.90;;;;;;5093189;28;20204;-58
2023/04/27 03:29:18;;;;;;;4.07;2.90;;;8.50;99.90;;;;;;5093085;28;20224;-58
2023/04/27 03:31:44;;;;;;;6.97;2.97;;;8.60;99.90;;;;;;5093373;28;20211;-57
2023/04/27 03:34:11;;;;;;;4.90;2.93;;;8.60;99.90;;;;;;5097014;28;20691;-58
2023/04/27 03:36:38;;;;;;;4.83;2.90;;;8.70;99.90;;;;;;5097983;28;20235;-57
2023/04/27 03:39:05;;;;;;;7.13;3.03;;;8.70;99.90;;;;;;5096643;28;20238;-58
2023/04/27 03:41:33;;;;;;;4.43;3.10;;;8.70;99.90;;;;;;5097451;28;20204;-58
2023/04/27 03:44:00;;;;;;;7.63;3.07;;;8.70;99.90;;;;;;5096763;28;20583;-58
2023/04/27 03:46:27;;;;;;;4.53;2.80;;;8.70;99.90;;;;;;5096929;28;20208;-58
2023/04/27 03:48:54;;;;;;;8.27;3.00;;;8.70;99.90;;;;;;5096132;28;20733;-58
2023/04/27 03:51:21;;;;;;;5.73;3.23;;;8.70;99.90;;;;;;5096549;28;20261;-58
2023/04/27 03:53:47;;;;;;;9.20;3.00;;;8.70;99.90;;;;;;5096698;28;20602;-58
2023/04/27 03:56:14;;;;;;;6.13;3.30;;;8.70;99.90;;;;;;5097036;28;20208;-58
2023/04/27 03:58:42;;;;;;;6.60;3.00;;;8.80;99.90;;;;;;5096406;28;20232;-58
2023/04/27 04:01:10;;;;;;;5.00;3.13;;;8.80;99.90;;;;;;5096655;28;20242;-58
2023/04/27 04:03:36;;;;;;;2.97;2.67;;;8.80;99.90;;;;;;5096239;28;20232;-58
2023/04/27 04:06:03;;;;;;;8.17;2.73;;;8.90;99.90;;;;;;5096771;28;20212;-58
2023/04/27 04:08:31;;;;;;;5.67;2.83;;;8.90;99.90;;;;;;5096196;28;20224;-58
2023/04/27 04:10:58;;;;;;;4.63;2.70;;;8.90;99.90;;;;;;5096610;28;20207;-58
2023/04/27 04:13:25;;;;;;;5.23;2.70;;;8.80;99.90;;;;;;5096170;28;20316;-58
2023/04/27 04:16:02;;;;;;;5.63;2.50;;;8.80;99.90;;;;;;5095970;28;20208;-58
2023/04/27 04:18:29;;;;;;;8.40;2.93;;;8.80;99.90;;;;;;5096048;28;20251;-58
2023/04/27 04:20:56;;;;;;;5.33;2.83;;;8.90;99.90;;;;;;5096066;28;20204;-58
2023/04/27 04:23:23;;;;;;;6.80;2.60;;;8.90;99.90;;;;;;5096278;28;20200;-58
2023/04/27 04:25:50;;;;;;;3.83;3.00;;;8.90;99.90;;;;;;5096567;28;20253;-59
2023/04/27 04:28:17;;;;;;;3.40;2.60;;;8.90;99.90;;;;;;5096154;28;20259;-58
2023/04/27 04:30:44;;;;;;;4.77;2.90;;;8.90;99.90;;;;;;5096109;28;20204;-58
2023/04/27 04:33:12;;;;;;;3.00;2.70;;;9.10;99.90;;;;;;5095869;28;20224;-58
2023/04/27 04:35:40;;;;;;;6.27;3.10;;;9.10;99.90;;;;;;5095585;28;20215;-58
2023/04/27 04:38:07;;;;;;;4.87;3.17;;;9.20;99.90;;;;;;5095413;28;20240;-58
2023/04/27 04:40:34;;;;;;;4.90;3.00;;;9.20;99.90;;;;;;5095512;28;20682;-58
2023/04/27 04:43:02;;;;;;;7.70;3.40;;;9.30;99.90;;;;;;5095804;28;20212;-58
2023/04/27 04:45:29;;;;;;;4.70;2.93;;;9.30;99.90;;;;;;5094954;28;20210;-58
2023/04/27 04:47:56;;;;;;;5.13;3.20;;;9.40;99.90;;;;;;5095470;28;20314;-58
2023/04/27 04:50:24;;;;;;;5.37;3.10;;;9.50;99.90;;;;;;5095655;28;20587;-58
2023/04/27 04:52:51;;;;;;;6.43;3.40;;;9.50;99.90;;;;;;5095598;28;20690;-58
2023/04/27 04:55:18;;;;;;;8.33;3.00;;;9.60;99.90;;;;;;5095833;28;20212;-58
2023/04/27 04:57:45;;;;;;;5.80;2.90;;;9.70;99.90;;;;;;5095441;28;20266;-59
2023/04/27 05:00:13;;;;;;;4.47;2.87;;;9.80;99.90;;;;;;5095298;28;20208;-58
2023/04/27 05:02:40;;;;;;;5.67;3.27;;;9.90;99.90;;;;;;5095806;28;20204;-59
2023/04/27 05:05:08;;;;;;;7.23;3.20;;;9.90;99.90;;;;;;5095456;28;20569;-58
2023/04/27 05:07:36;;;;;;;6.67;2.83;;;9.90;99.90;;;;;;5095594;28;20228;-58
2023/04/27 05:10:03;;;;;;;4.27;3.30;;;10.00;99.90;;;;;;5095246;28;20760;-59
2023/04/27 05:12:30;;;;;;;4.77;3.30;;;10.00;99.90;;;;;;5095741;28;20629;-59
2023/04/27 05:14:57;;;;;;;5.47;3.87;;;10.00;99.90;;;;;;5095552;28;20220;-58
2023/04/27 05:17:24;;;;;;;5.20;3.63;;;9.90;99.90;;;;;;5095012;28;20228;-59
2023/04/27 05:19:50;;;;;;;6.23;3.20;;;10.10;99.90;;;;;;5095331;28;20223;-59
2023/04/27 05:22:17;;;;;;;6.63;3.47;;;10.10;99.90;;;;;;5095420;28;20265;-59
2023/04/27 05:24:46;;;;;;;5.67;3.27;;;10.20;99.90;;;;;;5094720;28;20200;-59
2023/04/27 05:27:13;;;;;;;7.37;3.50;;;10.20;99.90;;;;;;5095776;28;20220;-58
2023/04/27 05:29:41;;;;;;;4.23;3.03;;;10.30;99.90;;;;;;5094762;28;20204;-58
2023/04/27 05:32:08;;;;;;;6.73;3.50;;;10.30;99.90;;;;;;5094749;28;20204;-59
2023/04/27 05:34:35;;;;;;;5.27;3.50;;;10.40;99.90;;;;;;5094540;28;20232;-59
2023/04/27 05:37:02;;;;;;;6.60;3.93;;;10.50;99.90;;;;;;5094273;28;20204;-58
2023/04/27 05:39:29;;;;;;;7.73;3.63;;;10.60;99.90;;;;;;5094916;28;20212;-59
2023/04/27 05:41:57;;;;;;;6.57;3.50;;;10.50;99.90;;;;;;5094437;28;20204;-59
2023/04/27 05:44:27;;;;;;;5.93;3.37;;;10.50;99.90;;;;;;5094706;28;20664;-60
2023/04/27 05:46:54;;;;;;;3.60;2.80;;;10.60;99.90;;;;;;5095034;28;20353;-58
2023/04/27 05:49:21;;;;;;;6.17;3.50;;;10.60;99.90;;;;;;5094465;28;20232;-58
2023/04/27 05:51:48;;;;;;;7.23;3.70;;;10.70;99.90;;;;;;5094458;28;20208;-58
2023/04/27 05:54:15;;;;;;;6.10;3.80;;;10.80;99.90;;;;;;5094479;28;20718;-58
2023/04/27 05:56:42;;;;;;;5.63;3.57;;;10.90;99.90;;;;;;5094891;28;20235;-58
2023/04/27 05:59:10;;;;;;;6.63;3.17;;;11.10;99.90;;;;;;5094431;28;20220;-58
2023/04/27 06:01:37;;;;;;;7.07;3.57;;;11.10;99.90;;;;;;5094392;28;20208;-59
2023/04/27 06:04:04;;;;;;;6.93;3.10;;;11.10;99.90;;;;;;5094146;28;20223;-58
2023/04/27 06:06:32;;;;;;;7.10;3.30;;;11.20;99.90;;;;;;5093882;28;20291;-58
2023/04/27 06:08:59;;;;;;;6.27;3.13;;;11.40;99.90;;;;;;5094181;28;20764;-60
2023/04/27 06:11:27;;;;;;;5.53;3.23;;;11.60;99.90;;;;;;5094433;28;20247;-59
2023/04/27 06:13:54;;;;;;;4.67;3.23;;;11.90;99.90;;;;;;5094282;28;20224;-58
2023/04/27 06:16:23;;;;;;;11.63;3.60;;;12.20;99.90;;;;;;5094104;28;20204;-59
2023/04/27 06:18:50;;;;;;;5.83;2.97;;;12.30;99.90;;;;;;5093406;28;20228;-59
2023/04/27 06:21:17;;;;;;;3.57;2.80;;;12.30;99.90;;;;;;5094363;28;20211;-58
2023/04/27 06:23:44;;;;;;;6.40;3.30;;;12.40;99.90;;;;;;5093923;28;20232;-58
2023/04/27 06:26:11;;;;;;;7.97;3.13;;;12.50;99.90;;;;;;5093753;28;20559;-59
2023/04/27 06:28:38;;;;;;;5.83;2.87;;;12.60;99.90;;;;;;5093677;28;20236;-58
2023/04/27 06:31:05;;;;;;;7.90;3.07;;;12.70;99.90;;;;;;5093678;28;20211;-59
2023/04/27 06:33:34;;;;;;;7.87;2.73;;;12.80;99.90;;;;;;5094157;28;20722;-59
2023/04/27 06:36:01;;;;;;;5.23;2.73;;;13.10;99.50;;;;;;5093785;28;20609;-59
2023/04/27 06:38:28;;;;;;;6.93;2.70;;;13.20;99.00;;;;;;5092943;28;20232;-59
2023/04/27 06:40:55;;;;;;;5.87;3.00;;;13.10;99.50;;;;;;5093046;28;20252;-59
2023/04/27 06:43:22;;;;;;;5.87;3.23;;;13.20;99.50;;;;;;5093386;28;20549;-59
2023/04/27 06:45:49;;;;;;;5.70;2.50;;;13.40;98.90;;;;;;5093197;28;20212;-58
2023/04/27 06:48:16;;;;;;;5.87;2.80;;;13.60;98.50;;;;;;5092798;28;20266;-58
2023/04/27 06:50:45;;;;;;;4.60;2.90;;;13.80;98.50;;;;;;5093484;28;20208;-58
2023/04/27 06:53:12;;;;;;;4.70;2.80;;;14.30;97.70;;;;;;5093592;28;20303;-60
2023/04/27 06:55:39;;;;;;;6.53;2.83;;;14.70;97.30;;;;;;5093222;28;20236;-60
2023/04/27 06:58:06;;;;;;;3.47;2.70;;;15.20;96.60;;;;;;5093095;28;20238;-59
2023/04/27 07:00:33;;;;;;;5.67;2.60;;;15.40;95.90;;;;;;5092982;28;20250;-59
2023/04/27 07:03:01;;;;;;;7.10;2.67;;;15.50;95.50;;;;;;5093125;28;20228;-59
2023/04/27 07:05:28;;;;;;;5.67;2.50;;;15.60;95.60;;;;;;5093626;28;20258;-59
2023/04/27 07:07:56;;;;;;;4.03;2.50;;;15.90;94.90;;;;;;5094542;28;20230;-60
2023/04/27 07:10:23;;;;;;;5.10;2.70;;;16.30;94.10;;;;;;5097490;28;20289;-59
2023/04/27 07:12:50;;;;;;;6.70;2.50;;;16.40;94.00;;;;;;5097862;28;20657;-59
2023/04/27 07:15:17;;;;;;;3.53;2.60;;;16.70;93.50;;;;;;5096912;28;20228;-60
2023/04/27 07:17:43;;;;;;;3.45;2.30;;;16.80;93.30;;;;;;5097061;28;20580;-61
2023/04/27 07:20:13;;;;;;;4.28;2.33;;;17.10;93.00;;;;;;5098342;28;20222;-63
2023/04/27 07:22:40;;;;;;;6.13;2.80;;;17.50;92.10;;;;;;5097889;28;20249;-59
2023/04/27 07:25:09;;;;;;;4.32;2.40;;;17.80;91.50;;;;;;5097201;28;20671;-60
2023/04/27 07:27:36;;;;;;;6.85;2.22;;;18.00;90.90;;;;;;5097407;28;20643;-59
2023/04/27 07:30:04;;;;;;;4.07;2.30;;;18.10;90.70;;;;;;5097565;28;20291;-59
2023/04/27 07:32:31;;;;;;;5.15;2.42;;;18.30;90.40;;;;;;5097028;28;20200;-59
2023/04/27 07:34:58;;;;;;;4.65;2.10;;;18.40;89.80;;;;;;5097322;28;20963;-59
2023/04/27 07:39:54;;;;;;;5.90;2.40;;;18.70;88.20;;;;;;5083507;28;20672;-67
2023/04/27 07:42:22;;;;;;;8.48;2.53;;;18.90;86.90;;;;;;5095284;28;20307;-66
2023/04/27 07:44:49;;;;;;;3.38;2.10;;;19.00;86.10;;;;;;5095569;28;20269;-66
2023/04/27 07:47:16;;;;;;;5.82;2.28;;;19.10;85.00;;;;;;5095587;28;20208;-67
2023/04/27 07:49:45;;;;;;;6.93;2.20;;;19.30;85.70;;;;;;5095249;28;20228;-66
2023/04/27 07:52:12;;;;;;;5.82;2.30;;;19.50;83.90;;;;;;5095379;28;20207;-66
2023/04/27 07:54:39;;;;;;;4.47;2.60;;;20.00;82.20;;;;;;5095639;28;20330;-66
2023/04/27 07:57:08;;;;;;;4.95;2.50;;;20.60;80.10;;;;;;5095472;28;20398;-67
2023/04/27 07:59:37;;;;;;;3.90;2.40;;;21.20;79.30;;;;;;5094845;28;20220;-66
2023/04/27 08:02:03;;;;;;;5.45;2.28;;;21.50;76.60;;;;;;5095163;28;20204;-66
2023/04/27 08:04:30;;;;;;;4.63;2.35;;;21.90;74.80;;;;;;5094963;28;20200;-66
2023/04/27 08:06:57;;;;;;;3.65;2.05;;;22.60;74.00;;;;;;5095224;28;20203;-66
2023/04/27 08:09:24;;;;;;;7.55;2.60;;;23.30;71.10;;;;;;5094670;28;20225;-66
2023/04/27 08:11:50;;;;;;;16.30;10.45;;;23.80;70.30;;;;;;5094872;28;20211;-66
2023/04/27 08:14:17;;;;;;;4.05;2.08;;;24.90;66.50;;;;;;5094788;28;20223;-66
2023/04/27 08:16:45;;;;;;;4.78;2.25;;;26.10;63.00;;;;;;5094654;28;20769;-66
2023/04/27 08:19:12;;;;;;;6.15;2.35;;;26.80;59.80;;;;;;5071389;28;20801;-68
2023/04/27 08:21:39;;;;;;;4.40;2.15;;;26.90;57.80;;;;;;5073061;28;20216;-68
2023/04/27 08:24:06;;;;;;;3.15;2.22;;;26.70;57.30;;;;;;5072680;28;20213;-70
2023/04/27 08:26:34;;;;;;;3.65;2.13;;;26.00;57.60;;;;;;5074239;28;20612;-68
2023/04/27 08:29:00;;;;;;;5.22;2.33;;;25.20;58.50;;;;;;5073018;28;20229;-68
2023/04/27 08:31:27;;;;;;;4.20;2.40;;;24.40;59.50;;;;;;5072934;28;20550;-68
2023/04/27 08:33:57;;;;;;;4.20;2.10;;;23.50;60.70;;;;;;5073321;28;20308;-69
2023/04/27 08:36:24;;;;;;;4.30;2.30;;;22.40;62.80;;;;;;5073132;28;20240;-65
2023/04/27 08:38:52;;;;;;;6.25;2.40;;;21.30;64.80;;;;;;5074019;28;20232;-69
2023/04/27 08:41:20;;;;;;;4.88;2.42;;;20.30;66.70;;;;;;5073395;28;20209;-66
2023/04/27 08:43:48;;;;;;;5.57;2.72;;;19.70;68.10;;;;;;5075100;28;20236;-66
2023/04/27 08:46:18;;;;;;;5.97;2.20;;;19.30;69.80;;;;;;5073806;28;20212;-68
2023/04/27 08:48:45;;;;;;;4.55;2.30;;;19.10;70.60;;;;;;5072761;28;20294;-67
2023/04/27 08:51:15;;;;;;;6.93;2.88;;;18.90;70.60;;;;;;5072933;28;20668;-66
2023/04/27 08:53:49;;;;;;;3.47;2.20;;;18.70;71.00;;;;;;5072832;28;20292;-64
2023/04/27 08:56:16;;;;;;;5.38;2.45;;;18.40;72.20;;;;;;5073363;28;20201;-65
2023/04/27 08:58:43;;;;;;;4.55;2.15;;;17.90;72.60;;;;;;5072967;28;20229;-65
2023/04/27 09:01:09;;;;;;;5.97;2.88;;;17.70;72.80;;;;;;5072989;28;20684;-67
2023/04/27 09:03:37;;;;;;;4.55;2.55;;;17.50;73.40;;;;;;5072818;28;20638;-63
2023/04/27 09:06:05;;;;;;;4.82;2.30;;;17.30;73.70;;;;;;5072519;28;20606;-63
2023/04/27 09:08:46;;;;;;;4.28;2.38;;;17.00;74.20;;;;;;5072734;28;20664;-64
2023/04/27 09:11:13;;;;;;;6.15;2.55;;;17.00;75.40;;;;;;5072722;28;20232;-64
2023/04/27 09:13:43;;;;;;;3.90;2.20;;;17.20;74.80;;;;;;5072763;28;20586;-65
2023/04/27 09:16:11;;;;;;;3.45;2.45;;;17.30;75.80;;;;;;5073117;28;20221;-68
2023/04/27 09:18:42;;;;;;;5.78;2.50;;;17.40;76.30;;;;;;5071957;28;20227;-66
2023/04/27 09:21:10;;;;;;;4.65;2.42;;;17.70;75.40;;;;;;5073379;28;20484;-65
2023/04/27 09:23:39;;;;;;;5.13;2.35;;;18.00;74.40;;;;;;5072715;28;20208;-67
2023/04/27 09:26:08;;;;;;;4.15;2.28;;;18.10;73.70;;;;;;5072368;28;20240;-64
2023/04/27 09:28:39;;;;;;;5.20;2.20;;;18.00;73.80;;;;;;5072161;28;20235;-64
2023/04/27 09:31:07;;;;;;;5.20;2.67;;;17.90;74.20;;;;;;5071808;28;20209;-64
2023/04/27 09:33:36;;;;;;;9.85;3.15;;;18.10;74.70;;;;;;5072414;28;20209;-64
2023/04/27 09:36:05;;;;;;;5.05;2.38;;;18.40;73.60;;;;;;5072076;28;20699;-66
2023/04/27 09:38:32;;;;;;;5.28;2.60;;;18.50;72.60;;;;;;5072138;28;20240;-64
2023/04/27 09:40:59;;;;;;;5.88;2.35;;;18.80;73.80;;;;;;5073747;28;20235;-64
2023/04/27 09:43:28;;;;;;;3.90;2.50;;;19.00;73.40;;;;;;5074154;28;20263;-63
2023/04/27 09:45:56;;;;;;;6.57;2.55;;;19.10;72.20;;;;;;5074044;28;20208;-64
2023/04/27 09:48:23;;;;;;;6.47;2.85;;;19.10;71.40;;;;;;5073550;28;20600;-64
2023/04/27 09:50:52;;;;;;;9.80;2.65;;;18.80;71.40;;;;;;5073419;28;20213;-64
2023/04/27 09:53:23;;;;;;;8.82;3.03;;;18.70;71.80;;;;;;5073119;28;20622;-64
2023/04/27 09:56:02;;;;;;;6.78;2.83;;;18.60;72.70;;;;;;5073962;28;20231;-64
2023/04/27 09:58:57;;;;;;;5.32;3.17;;;18.70;73.00;;;;;;5074827;28;20267;-64
2023/04/27 10:01:29;;;;;;;7.30;2.90;;;18.80;71.70;;;;;;5067737;28;20231;-64
2023/04/27 10:04:08;;;;;;;5.07;2.65;;;18.70;71.30;;;;;;5073452;28;20201;-64
2023/04/27 10:06:58;;;;;;;6.60;2.80;;;18.70;71.30;;;;;;5072782;28;20213;-64
2023/04/27 10:09:26;;;;;;;4.30;2.50;;;18.40;71.90;;;;;;5073032;28;20237;-64
2023/04/27 10:11:55;;;;;;;6.07;2.90;;;18.30;72.10;;;;;;5072395;28;20211;-64
2023/04/27 10:14:24;;;;;;;4.22;2.40;;;18.40;71.70;;;;;;5072138;28;20205;-63
2023/04/27 10:16:53;;;;;;;3.78;2.60;;;18.50;71.40;;;;;;5069278;28;20304;-64
2023/04/27 10:19:20;;;;;;;5.43;2.53;;;18.60;71.20;;;;;;5070256;28;20225;-65
2023/04/27 10:21:56;;;;;;;4.32;2.40;;;18.70;68.60;;;;;;5071181;28;20220;-64
2023/04/27 10:24:35;;;;;;;4.25;2.67;;;18.80;68.60;;;;;;5071331;28;20224;-65
2023/04/27 10:27:05;;;;;;;6.47;2.67;;;19.00;70.00;;;;;;5071371;28;20249;-66
2023/04/27 10:29:37;;;;;;;6.85;2.70;;;19.00;68.00;;;;;;5072225;28;20231;-66
2023/04/27 10:32:09;;;;;;;6.55;2.95;;;19.10;68.10;;;;;;5091350;28;20204;-66
2023/04/27 10:34:36;;;;;;;6.28;2.90;;;19.10;67.00;;;;;;5090911;28;20208;-66
2023/04/27 10:37:08;;;;;;;4.50;2.97;;;19.00;67.70;;;;;;5091131;28;20261;-67
2023/04/27 10:39:36;;;;;;;7.05;2.83;;;19.20;67.20;;;;;;5090681;28;20231;-66
2023/04/27 10:42:03;;;;;;;5.55;2.70;;;19.30;66.00;;;;;;5090493;28;20205;-66
2023/04/27 10:44:31;;;;;;;5.13;2.45;;;19.50;65.00;;;;;;5091035;28;20235;-67
2023/04/27 10:47:01;;;;;;;4.90;2.50;;;19.70;64.30;;;;;;5090989;28;20614;-66
2023/04/27 10:49:28;;;;;;;7.90;2.97;;;19.80;64.30;;;;;;5090466;28;20224;-66
2023/04/27 10:51:58;;;;;;;4.43;2.90;;;19.90;62.20;;;;;;5090977;28;20797;-66
2023/04/27 10:54:26;;;;;;;4.35;2.70;;;20.00;63.40;;;;;;5090783;28;20204;-66
2023/04/27 10:56:53;;;;;;;5.28;2.78;;;20.00;62.70;;;;;;5090647;28;20246;-66
2023/04/27 10:59:20;;;;;;;5.18;3.10;;;19.90;62.00;;;;;;5090575;28;20263;-66
2023/04/27 11:01:50;;;;;;;6.75;2.75;;;19.90;61.70;;;;;;5090932;28;20211;-66
2023/04/27 11:04:18;;;;;;;4.30;2.80;;;20.00;59.70;;;;;;5090944;28;20733;-64
2023/04/27 11:06:45;;;;;;;4.70;2.65;;;19.90;59.70;;;;;;5090983;28;20763;-64
2023/04/27 11:09:13;;;;;;;6.05;3.13;;;19.90;61.30;;;;;;5090364;28;20228;-66
2023/04/27 11:11:44;;;;;;;6.38;3.28;;;19.80;63.20;;;;;;5091467;28;20294;-64
2023/04/27 11:14:15;;;;;;;7.10;3.75;;;19.60;63.60;;;;;;5090854;28;20635;-66
2023/04/27 11:16:46;;;;;;;6.72;4.05;;;19.70;64.70;;;;;;5091854;28;20246;-67
2023/04/27 11:19:15;;;;;;;6.28;4.10;;;19.90;65.20;;;;;;5092516;28;20279;-66
2023/04/27 11:21:44;;;;;;;7.68;3.92;;;20.00;64.30;;;;;;5092014;28;20200;-67
2023/04/27 11:24:11;;;;;;;4.68;3.53;;;20.00;63.50;;;;;;5091716;28;20680;-65
2023/04/27 11:26:38;;;;;;;5.90;3.95;;;20.10;63.60;;;;;;5092046;28;20204;-64
2023/04/27 11:29:08;;;;;;;7.03;3.92;;;20.00;63.60;;;;;;5091333;28;20695;-66
2023/04/27 11:31:40;;;;;;;4.65;3.60;;;20.10;64.80;;;;;;5091839;28;20200;-65
2023/04/27 11:34:07;;;;;;;5.28;3.22;;;20.10;64.40;;;;;;5092131;28;20212;-66
2023/04/27 11:36:34;;;;;;;7.50;3.35;;;20.20;65.30;;;;;;5091694;28;20228;-66
2023/04/27 11:39:05;;;;;;;6.80;3.90;;;20.10;65.10;;;;;;5091340;28;20271;-65
2023/04/27 11:41:35;;;;;;;5.82;3.80;;;19.90;64.70;;;;;;5091876;28;20582;-66
2023/04/27 11:44:07;;;;;;;6.70;3.42;;;19.80;65.30;;;;;;5091604;28;20621;-65
2023/04/27 11:46:36;;;;;;;8.63;3.78;;;19.90;66.10;;;;;;5091546;28;20200;-67
2023/04/27 11:49:04;;;;;;;8.98;4.25;;;20.10;65.60;;;;;;5091850;28;20228;-66
2023/04/27 11:51:31;;;;;;;8.85;4.32;;;20.40;65.70;;;;;;5092042;28;20265;-66
2023/04/27 11:54:03;;;;;;;7.30;4.28;;;20.60;64.50;;;;;;5093204;28;20207;-66
2023/04/27 11:56:37;;;;;;;4.88;4.05;;;20.70;64.00;;;;;;5095310;28;20236;-65
2023/04/27 11:59:04;;;;;;;5.78;4.20;;;20.80;63.70;;;;;;5095414;28;20219;-65
2023/04/27 12:01:32;;;;;;;6.40;4.45;;;20.70;63.30;;;;;;5096053;28;20215;-65
2023/04/27 12:04:00;;;;;;;7.15;4.32;;;20.70;64.20;;;;;;5095995;28;20204;-65
2023/04/27 12:06:27;;;;;;;9.00;4.30;;;20.90;63.90;;;;;;5095893;28;20223;-64
2023/04/27 12:08:55;;;;;;;5.57;4.22;;;21.00;63.80;;;;;;5095115;28;20224;-66
2023/04/27 12:11:24;;;;;;;6.45;4.32;;;21.20;63.20;;;;;;5095685;28;20628;-66
2023/04/27 12:13:51;;;;;;;8.48;4.75;;;21.50;63.80;;;;;;5095408;28;20231;-65
2023/04/27 12:16:20;;;;;;;7.13;4.72;;;21.60;63.30;;;;;;5095489;28;20790;-65
2023/04/27 12:18:47;;;;;;;8.23;4.25;;;21.70;63.50;;;;;;5095399;28;20493;-66
2023/04/27 12:21:14;;;;;;;6.60;4.43;;;21.90;62.70;;;;;;5095804;28;20208;-66
2023/04/27 12:23:41;;;;;;;6.43;4.45;;;22.00;62.30;;;;;;5095804;28;20232;-65
2023/04/27 12:26:08;;;;;;;6.45;3.97;;;21.90;63.70;;;;;;5095561;28;20204;-65
2023/04/27 12:28:37;;;;;;;5.47;3.53;;;21.90;65.40;;;;;;5095148;28;20228;-64
2023/04/27 12:31:04;;;;;;;5.75;3.40;;;21.90;64.60;;;;;;5096293;28;20593;-66
2023/04/27 12:33:31;;;;;;;7.20;3.63;;;21.90;64.00;;;;;;5095319;28;20216;-65
2023/04/27 12:35:58;;;;;;;8.48;4.28;;;22.10;63.20;;;;;;5094705;28;20231;-64
2023/04/27 12:38:25;;;;;;;7.25;4.10;;;22.10;62.30;;;;;;5094402;28;20639;-65
2023/04/27 12:40:53;;;;;;;6.45;3.70;;;21.90;63.30;;;;;;5099823;28;20215;-65
2023/04/27 12:43:20;;;;;;;5.20;3.65;;;21.80;63.30;;;;;;5095288;28;20208;-66
2023/04/27 12:45:48;;;;;;;8.95;4.07;;;21.60;62.60;;;;;;5095513;28;20211;-65
2023/04/27 12:48:15;;;;;;;7.38;4.20;;;21.40;64.30;;;;;;5094853;28;20277;-66
2023/04/27 12:50:42;;;;;;;7.00;4.13;;;21.10;64.10;;;;;;5096102;28;20265;-64
2023/04/27 12:53:08;;;;;;;5.35;3.75;;;21.00;65.00;;;;;;5097277;28;20200;-63
2023/04/27 12:55:36;;;;;;;7.82;4.03;;;21.20;64.70;;;;;;5095994;28;20232;-63